»·PEaware :: SWA250 KMCO-KATL

SWA250 :: KMCO-KATL

FLIGHT INFORMATION

Flight Status: Arrived
Operator:
Southwest Airlines
More flights by this operator :: More flights under this callsign
Pilot: Andrew J. (13363)
Aircraft: BOEING 737-300
(B733)
More flights by this aircraft type
Origin: KMCO Orlando Intl
United States
Destination: KATL Hartsfield-Jackson Atlanta
United States
More flights between these airports :: More routes between these airports
Route: JAG5 VQQ CHESN LAIRI HOWRR SMOOV1
File this flight plan on PilotEdge
Remarks:
Altitude:
(Current/Filed)
34,000ft
Speed:
(Current/Filed)
460kts
Departed: 31-May-17 02:37 PM
Arrived: 31-May-17 03:39 PM
Distance/Time
Traveled:
351nm/1:01
Distance/Time
To Go:
Arrived

Flight Plot

Page will automatically refresh every two minutes.

Flight plan parsing failed; only flown route is shown


Map Options




Map Legend


Flown Route
Filed Route
Departure Airport
Arrival Airport
Navaid (VOR, NDB)
Fix

Horizontal Profiles

Position Reports

Time Latitude Longitude Heading Altitude Ground
Speed
31-May-17 14:38 28.436882 -81.378017 228 10340ft 305kts
31-May-17 14:39 28.460383 -81.467487 338 12273ft 367kts
31-May-17 14:40 28.550563 -81.427794 35 14968ft 383kts
31-May-17 14:41 28.644081 -81.368014 13 17664ft 394kts
31-May-17 14:42 28.752528 -81.372511 354 20262ft 400kts
31-May-17 14:43 28.864213 -81.377939 354 22690ft 409kts
31-May-17 14:44 28.978401 -81.383094 353 24845ft 419kts
31-May-17 14:45 29.095377 -81.388385 352 26770ft 430kts
31-May-17 14:46 29.212256 -81.399356 350 28766ft 432kts
31-May-17 14:47 29.329588 -81.410734 349 31258ft 419kts
31-May-17 14:48 29.443405 -81.421797 348 33352ft 410kts
31-May-17 14:49 29.556681 -81.432860 348 34091ft 412kts
31-May-17 14:50 29.669199 -81.443842 348 34099ft 409kts
31-May-17 14:51 29.779920 -81.463094 322 34096ft 390kts
31-May-17 14:52 29.860153 -81.544065 315 34107ft 387kts
31-May-17 14:53 29.940686 -81.623085 316 34103ft 387kts
31-May-17 14:54 30.020518 -81.701453 315 34106ft 387kts
31-May-17 14:55 30.100993 -81.780459 315 34103ft 387kts
31-May-17 14:56 30.181392 -81.859241 315 34077ft 387kts
31-May-17 14:57 30.285360 -81.882506 1 34109ft 426kts
31-May-17 14:58 30.401199 -81.864324 359 34103ft 422kts
31-May-17 14:59 30.516757 -81.847940 359 34104ft 422kts
31-May-17 15:00 30.632763 -81.831465 359 34103ft 423kts
31-May-17 15:01 30.748678 -81.814953 359 34103ft 423kts
31-May-17 15:02 30.861647 -81.813280 326 34091ft 392kts
31-May-17 15:03 30.954507 -81.877604 324 34107ft 392kts
31-May-17 15:04 31.048619 -81.939943 324 34103ft 392kts
31-May-17 15:05 31.139070 -81.999669 324 34097ft 392kts
31-May-17 15:06 31.232281 -82.061390 324 34117ft 392kts
31-May-17 15:07 31.326492 -82.124003 324 34102ft 392kts
31-May-17 15:08 31.420743 -82.186793 324 34103ft 392kts
31-May-17 15:09 31.514581 -82.249480 324 33403ft 407kts
31-May-17 15:10 31.618960 -82.319391 326 27291ft 460kts
31-May-17 15:11 31.723177 -82.389282 325 26156ft 406kts
31-May-17 15:12 31.820400 -82.454967 325 27042ft 413kts
31-May-17 15:13 31.920210 -82.522536 325 29250ft 413kts
31-May-17 15:14 32.011123 -82.600052 314 30151ft 403kts
31-May-17 15:15 32.093576 -82.684550 314 30126ft 401kts
31-May-17 15:16 32.151075 -82.743063 314 30132ft 401kts
31-May-17 15:17 32.234898 -82.828671 314 30130ft 401kts
31-May-17 15:18 32.318852 -82.914679 314 30130ft 401kts
31-May-17 15:19 32.402695 -83.000792 314 30130ft 401kts
31-May-17 15:20 32.486951 -83.087583 314 29783ft 411kts
31-May-17 15:21 32.573919 -83.177329 314 26565ft 413kts
31-May-17 15:22 32.657891 -83.264236 315 24446ft 394kts
31-May-17 15:23 32.738618 -83.348016 315 22348ft 379kts
31-May-17 15:24 32.815592 -83.428096 315 20321ft 368kts
31-May-17 15:25 32.892861 -83.508684 315 18315ft 371kts
31-May-17 15:26 32.969126 -83.588390 315 16323ft 360kts
31-May-17 15:27 33.042538 -83.665375 315 14420ft 368kts
31-May-17 15:28 33.115110 -83.741678 316 12522ft 360kts
31-May-17 15:29 33.189303 -83.819632 315 10612ft 351kts
31-May-17 15:30 33.255329 -83.898114 313 9849ft 309kts
31-May-17 15:31 33.316223 -83.967882 329 8210ft 299kts
31-May-17 15:32 33.388402 -83.996984 341 8120ft 282kts
31-May-17 15:33 33.459712 -84.026717 340 8133ft 282kts
31-May-17 15:34 33.531082 -84.054473 354 7140ft 271kts
31-May-17 15:35 33.575978 -84.116109 297 5969ft 261kts
31-May-17 15:36 33.614703 -84.185473 304 4775ft 249kts
31-May-17 15:37 33.632149 -84.256932 268 3596ft 225kts
31-May-17 15:38 33.631888 -84.325345 269 2861ft 180kts
31-May-17 15:39 33.631812 -84.380719 270 1695ft 144kts
31-May-17 15:40 33.631834 -84.427705 270 1033ft 131kts
31-May-17 15:41 33.634522 -84.441922 358 1032ft 19kts
31-May-17 15:42 33.635817 -84.438581 86 1032ft 12kts
31-May-17 15:43 33.638754 -84.433992 1 1032ft 19kts
31-May-17 15:44 33.639473 -84.433232 91 1032ft 0kts

Navigation Log

Ident Type
Flight plan parsing failed, navigation log unavailable